sensor_id;sensor_type;location;lat;lon;timestamp;P1;durP1;ratioP1;P2;durP2;ratioP2
22378;SDS011;11357;49.990;7.370;2022-07-29T00:02:08;68.10;;;63.67;;
22378;SDS011;11357;49.990;7.370;2022-07-29T00:04:35;85.70;;;80.80;;
22378;SDS011;11357;49.990;7.370;2022-07-29T00:07:01;133.13;;;125.32;;
22378;SDS011;11357;49.990;7.370;2022-07-29T00:09:28;136.07;;;127.90;;
22378;SDS011;11357;49.990;7.370;2022-07-29T00:11:56;216.13;;;203.55;;
22378;SDS011;11357;49.990;7.370;2022-07-29T00:14:24;250.90;;;235.27;;
22378;SDS011;11357;49.990;7.370;2022-07-29T00:16:50;271.25;;;253.90;;
22378;SDS011;11357;49.990;7.370;2022-07-29T00:19:16;309.60;;;289.35;;
22378;SDS011;11357;49.990;7.370;2022-07-29T00:21:41;1450.82;;;921.05;;
22378;SDS011;11357;49.990;7.370;2022-07-29T00:24:07;1999.90;;;999.90;;
22378;SDS011;11357;49.990;7.370;2022-07-29T00:26:33;1999.90;;;995.67;;
22378;SDS011;11357;49.990;7.370;2022-07-29T00:28:59;1999.90;;;966.60;;
22378;SDS011;11357;49.990;7.370;2022-07-29T00:31:25;1525.03;;;956.85;;
22378;SDS011;11357;49.990;7.370;2022-07-29T00:33:51;1970.85;;;999.90;;
22378;SDS011;11357;49.990;7.370;2022-07-29T00:36:17;1999.90;;;999.90;;
22378;SDS011;11357;49.990;7.370;2022-07-29T00:38:43;1019.53;;;861.50;;
22378;SDS011;11357;49.990;7.370;2022-07-29T00:41:11;1867.35;;;999.08;;
22378;SDS011;11357;49.990;7.370;2022-07-29T00:43:37;1999.90;;;999.90;;
22378;SDS011;11357;49.990;7.370;2022-07-29T00:46:02;1931.18;;;999.40;;
22378;SDS011;11357;49.990;7.370;2022-07-29T00:48:28;1328.18;;;953.03;;
22378;SDS011;11357;49.990;7.370;2022-07-29T00:50:54;1185.60;;;949.28;;
22378;SDS011;11357;49.990;7.370;2022-07-29T00:53:22;1999.90;;;983.42;;
22378;SDS011;11357;49.990;7.370;2022-07-29T00:55:49;1999.90;;;999.90;;
22378;SDS011;11357;49.990;7.370;2022-07-29T00:58:15;1999.90;;;999.90;;
22378;SDS011;11357;49.990;7.370;2022-07-29T01:00:41;1999.90;;;999.90;;
22378;SDS011;11357;49.990;7.370;2022-07-29T01:03:07;1966.68;;;999.90;;
22378;SDS011;11357;49.990;7.370;2022-07-29T01:05:33;1554.03;;;979.75;;
22378;SDS011;11357;49.990;7.370;2022-07-29T01:07:59;1148.03;;;911.45;;
22378;SDS011;11357;49.990;7.370;2022-07-29T01:10:26;1123.60;;;915.78;;
22378;SDS011;11357;49.990;7.370;2022-07-29T01:12:54;1308.60;;;949.00;;
22378;SDS011;11357;49.990;7.370;2022-07-29T01:15:23;1020.25;;;864.75;;
22378;SDS011;11357;49.990;7.370;2022-07-29T01:32:03;1198.40;;;912.38;;
22378;SDS011;11357;49.990;7.370;2022-07-29T01:37:20;1104.38;;;915.28;;
22378;SDS011;11357;49.990;7.370;2022-07-29T01:40:17;1341.07;;;948.45;;
22378;SDS011;11357;49.990;7.370;2022-07-29T01:42:51;1414.87;;;948.67;;
22378;SDS011;11357;49.990;7.370;2022-07-29T01:48:05;1306.68;;;936.65;;
22378;SDS011;11357;49.990;7.370;2022-07-29T01:51:20;1327.03;;;935.70;;
22378;SDS011;11357;49.990;7.370;2022-07-29T01:53:58;1346.33;;;946.73;;
22378;SDS011;11357;49.990;7.370;2022-07-29T01:56:48;1376.55;;;939.80;;
22378;SDS011;11357;49.990;7.370;2022-07-29T01:59:16;1342.85;;;962.55;;
22378;SDS011;11357;49.990;7.370;2022-07-29T02:01:43;1442.17;;;982.23;;
22378;SDS011;11357;49.990;7.370;2022-07-29T02:04:12;1999.90;;;999.90;;
22378;SDS011;11357;49.990;7.370;2022-07-29T02:06:40;1678.80;;;997.00;;
22378;SDS011;11357;49.990;7.370;2022-07-29T02:09:07;1970.37;;;999.90;;
22378;SDS011;11357;49.990;7.370;2022-07-29T02:11:36;1999.90;;;999.90;;
22378;SDS011;11357;49.990;7.370;2022-07-29T02:14:03;1999.90;;;999.90;;
22378;SDS011;11357;49.990;7.370;2022-07-29T02:16:32;1999.90;;;999.90;;
22378;SDS011;11357;49.990;7.370;2022-07-29T02:19:01;1999.90;;;999.90;;
22378;SDS011;11357;49.990;7.370;2022-07-29T02:21:27;1999.90;;;999.90;;
22378;SDS011;11357;49.990;7.370;2022-07-29T02:23:57;1499.67;;;356.60;;
22378;SDS011;11357;49.990;7.370;2022-07-29T02:26:26;1723.27;;;418.13;;
22378;SDS011;11357;49.990;7.370;2022-07-29T02:28:54;1999.90;;;652.03;;
22378;SDS011;11357;49.990;7.370;2022-07-29T02:31:21;1999.90;;;771.85;;
22378;SDS011;11357;49.990;7.370;2022-07-29T02:33:50;1999.90;;;764.00;;
22378;SDS011;11357;49.990;7.370;2022-07-29T02:36:17;1999.90;;;870.73;;
22378;SDS011;11357;49.990;7.370;2022-07-29T02:38:47;1999.90;;;880.63;;
22378;SDS011;11357;49.990;7.370;2022-07-29T02:41:28;1999.90;;;996.67;;
22378;SDS011;11357;49.990;7.370;2022-07-29T02:44:02;1999.90;;;994.20;;
22378;SDS011;11357;49.990;7.370;2022-07-29T02:46:32;1999.90;;;999.83;;
22378;SDS011;11357;49.990;7.370;2022-07-29T02:49:17;1754.27;;;952.03;;
22378;SDS011;11357;49.990;7.370;2022-07-29T02:51:53;1949.63;;;999.90;;
22378;SDS011;11357;49.990;7.370;2022-07-29T02:54:33;1999.90;;;999.90;;
22378;SDS011;11357;49.990;7.370;2022-07-29T02:57:22;1964.37;;;992.03;;
22378;SDS011;11357;49.990;7.370;2022-07-29T02:59:57;1999.90;;;996.47;;
22378;SDS011;11357;49.990;7.370;2022-07-29T03:02:28;1999.90;;;997.37;;
22378;SDS011;11357;49.990;7.370;2022-07-29T03:04:59;1913.80;;;996.07;;
22378;SDS011;11357;49.990;7.370;2022-07-29T03:07:25;1642.60;;;942.13;;
22378;SDS011;11357;49.990;7.370;2022-07-29T03:09:52;1254.47;;;821.93;;
22378;SDS011;11357;49.990;7.370;2022-07-29T03:12:19;1006.57;;;836.70;;
22378;SDS011;11357;49.990;7.370;2022-07-29T03:14:45;987.63;;;765.93;;
22378;SDS011;11357;49.990;7.370;2022-07-29T03:17:12;799.50;;;668.07;;
22378;SDS011;11357;49.990;7.370;2022-07-29T03:19:38;735.40;;;651.53;;
22378;SDS011;11357;49.990;7.370;2022-07-29T03:22:04;641.53;;;535.90;;
22378;SDS011;11357;49.990;7.370;2022-07-29T03:24:31;655.67;;;587.40;;
22378;SDS011;11357;49.990;7.370;2022-07-29T03:26:58;665.60;;;594.20;;
22378;SDS011;11357;49.990;7.370;2022-07-29T03:29:25;534.00;;;468.60;;
22378;SDS011;11357;49.990;7.370;2022-07-29T03:31:51;509.00;;;455.60;;
22378;SDS011;11357;49.990;7.370;2022-07-29T03:34:17;516.77;;;462.03;;
22378;SDS011;11357;49.990;7.370;2022-07-29T03:36:43;459.70;;;412.03;;
22378;SDS011;11357;49.990;7.370;2022-07-29T03:39:09;514.53;;;463.30;;
22378;SDS011;11357;49.990;7.370;2022-07-29T03:49:23;402.90;;;360.10;;
22378;SDS011;11357;49.990;7.370;2022-07-29T03:51:51;414.90;;;371.73;;
22378;SDS011;11357;49.990;7.370;2022-07-29T03:54:17;398.07;;;354.67;;
22378;SDS011;11357;49.990;7.370;2022-07-29T03:56:43;363.40;;;324.33;;
22378;SDS011;11357;49.990;7.370;2022-07-29T03:59:14;326.37;;;294.00;;
22378;SDS011;11357;49.990;7.370;2022-07-29T04:01:48;365.33;;;327.53;;
22378;SDS011;11357;49.990;7.370;2022-07-29T04:04:14;393.57;;;350.20;;
22378;SDS011;11357;49.990;7.370;2022-07-29T04:06:41;343.43;;;306.63;;
22378;SDS011;11357;49.990;7.370;2022-07-29T04:09:08;318.83;;;251.63;;
22378;SDS011;11357;49.990;7.370;2022-07-29T04:11:35;289.03;;;249.87;;
22378;SDS011;11357;49.990;7.370;2022-07-29T04:14:02;327.03;;;243.73;;
22378;SDS011;11357;49.990;7.370;2022-07-29T04:16:28;275.87;;;198.03;;
22378;SDS011;11357;49.990;7.370;2022-07-29T04:18:54;266.00;;;213.07;;
22378;SDS011;11357;49.990;7.370;2022-07-29T04:21:20;323.30;;;263.97;;
22378;SDS011;11357;49.990;7.370;2022-07-29T04:23:45;306.57;;;236.27;;
22378;SDS011;11357;49.990;7.370;2022-07-29T04:26:14;318.83;;;257.27;;
22378;SDS011;11357;49.990;7.370;2022-07-29T04:28:41;322.60;;;248.30;;
22378;SDS011;11357;49.990;7.370;2022-07-29T04:31:07;226.77;;;170.00;;
22378;SDS011;11357;49.990;7.370;2022-07-29T04:33:33;252.93;;;201.40;;
22378;SDS011;11357;49.990;7.370;2022-07-29T04:35:59;299.77;;;249.83;;
22378;SDS011;11357;49.990;7.370;2022-07-29T04:38:25;298.70;;;217.60;;
22378;SDS011;11357;49.990;7.370;2022-07-29T04:40:50;317.87;;;267.17;;
22378;SDS011;11357;49.990;7.370;2022-07-29T04:43:16;453.33;;;405.53;;
22378;SDS011;11357;49.990;7.370;2022-07-29T04:45:42;389.07;;;346.53;;
22378;SDS011;11357;49.990;7.370;2022-07-29T04:48:08;230.00;;;135.03;;
22378;SDS011;11357;49.990;7.370;2022-07-29T04:50:33;179.57;;;113.17;;
22378;SDS011;11357;49.990;7.370;2022-07-29T04:52:59;202.97;;;161.47;;
22378;SDS011;11357;49.990;7.370;2022-07-29T04:55:25;336.43;;;247.40;;
22378;SDS011;11357;49.990;7.370;2022-07-29T04:57:51;349.90;;;288.70;;
22378;SDS011;11357;49.990;7.370;2022-07-29T05:00:16;501.13;;;450.60;;
22378;SDS011;11357;49.990;7.370;2022-07-29T05:02:42;557.13;;;496.93;;
22378;SDS011;11357;49.990;7.370;2022-07-29T05:05:08;653.57;;;589.37;;
22378;SDS011;11357;49.990;7.370;2022-07-29T05:07:34;806.13;;;717.33;;
22378;SDS011;11357;49.990;7.370;2022-07-29T05:10:00;654.73;;;584.83;;
22378;SDS011;11357;49.990;7.370;2022-07-29T05:12:25;868.10;;;768.27;;
22378;SDS011;11357;49.990;7.370;2022-07-29T05:14:52;759.47;;;620.17;;
22378;SDS011;11357;49.990;7.370;2022-07-29T05:17:18;415.67;;;369.90;;
22378;SDS011;11357;49.990;7.370;2022-07-29T05:19:44;702.67;;;626.70;;
22378;SDS011;11357;49.990;7.370;2022-07-29T05:22:10;494.10;;;442.80;;
22378;SDS011;11357;49.990;7.370;2022-07-29T05:24:35;365.03;;;314.80;;
22378;SDS011;11357;49.990;7.370;2022-07-29T05:27:01;384.17;;;325.03;;
22378;SDS011;11357;49.990;7.370;2022-07-29T05:29:26;463.03;;;412.97;;
22378;SDS011;11357;49.990;7.370;2022-07-29T05:31:52;291.67;;;246.97;;
22378;SDS011;11357;49.990;7.370;2022-07-29T05:34:18;419.30;;;373.43;;
22378;SDS011;11357;49.990;7.370;2022-07-29T05:36:44;365.23;;;308.47;;
22378;SDS011;11357;49.990;7.370;2022-07-29T05:39:10;363.13;;;325.00;;
22378;SDS011;11357;49.990;7.370;2022-07-29T05:41:37;284.53;;;231.87;;
22378;SDS011;11357;49.990;7.370;2022-07-29T05:44:03;388.53;;;315.60;;
22378;SDS011;11357;49.990;7.370;2022-07-29T05:46:29;709.30;;;605.50;;
22378;SDS011;11357;49.990;7.370;2022-07-29T05:48:55;396.37;;;327.47;;
22378;SDS011;11357;49.990;7.370;2022-07-29T05:51:21;327.67;;;272.07;;
22378;SDS011;11357;49.990;7.370;2022-07-29T05:53:47;180.40;;;102.23;;
22378;SDS011;11357;49.990;7.370;2022-07-29T05:56:12;173.00;;;104.63;;
22378;SDS011;11357;49.990;7.370;2022-07-29T05:58:38;178.47;;;123.50;;
22378;SDS011;11357;49.990;7.370;2022-07-29T06:01:04;272.70;;;202.57;;
22378;SDS011;11357;49.990;7.370;2022-07-29T06:03:30;513.27;;;458.23;;
22378;SDS011;11357;49.990;7.370;2022-07-29T06:05:56;371.63;;;330.73;;
22378;SDS011;11357;49.990;7.370;2022-07-29T06:08:21;135.07;;;93.33;;
22378;SDS011;11357;49.990;7.370;2022-07-29T06:10:47;122.20;;;78.13;;
22378;SDS011;11357;49.990;7.370;2022-07-29T06:13:13;211.77;;;144.90;;
22378;SDS011;11357;49.990;7.370;2022-07-29T06:15:40;221.70;;;184.70;;
22378;SDS011;11357;49.990;7.370;2022-07-29T06:18:07;461.67;;;411.53;;
22378;SDS011;11357;49.990;7.370;2022-07-29T06:20:34;584.47;;;525.10;;
22378;SDS011;11357;49.990;7.370;2022-07-29T06:23:00;1355.13;;;910.07;;
22378;SDS011;11357;49.990;7.370;2022-07-29T06:25:26;1156.90;;;882.20;;
22378;SDS011;11357;49.990;7.370;2022-07-29T06:27:56;1264.33;;;925.10;;
22378;SDS011;11357;49.990;7.370;2022-07-29T06:30:22;1371.13;;;932.47;;
22378;SDS011;11357;49.990;7.370;2022-07-29T06:32:48;482.30;;;431.93;;
22378;SDS011;11357;49.990;7.370;2022-07-29T06:35:14;1532.17;;;991.20;;
22378;SDS011;11357;49.990;7.370;2022-07-29T06:37:40;1344.23;;;959.07;;
22378;SDS011;11357;49.990;7.370;2022-07-29T06:40:05;844.47;;;700.47;;
22378;SDS011;11357;49.990;7.370;2022-07-29T06:42:50;1198.40;;;895.22;;
22378;SDS011;11357;49.990;7.370;2022-07-29T06:45:15;1682.73;;;963.80;;
22378;SDS011;11357;49.990;7.370;2022-07-29T06:47:41;1456.87;;;973.40;;
22378;SDS011;11357;49.990;7.370;2022-07-29T06:50:07;1057.43;;;856.43;;
22378;SDS011;11357;49.990;7.370;2022-07-29T06:52:36;1999.90;;;999.90;;
22378;SDS011;11357;49.990;7.370;2022-07-29T06:55:03;1736.30;;;330.35;;
22378;SDS011;11357;49.990;7.370;2022-07-29T06:57:29;1999.90;;;999.90;;
22378;SDS011;11357;49.990;7.370;2022-07-29T06:59:58;1999.90;;;999.90;;
22378;SDS011;11357;49.990;7.370;2022-07-29T07:02:24;1999.90;;;999.90;;
22378;SDS011;11357;49.990;7.370;2022-07-29T07:04:50;1999.90;;;999.90;;
22378;SDS011;11357;49.990;7.370;2022-07-29T07:07:15;1999.90;;;967.50;;
22378;SDS011;11357;49.990;7.370;2022-07-29T07:09:41;1999.90;;;969.55;;
22378;SDS011;11357;49.990;7.370;2022-07-29T07:12:07;1865.88;;;990.92;;
22378;SDS011;11357;49.990;7.370;2022-07-29T07:14:32;489.77;;;442.23;;
22378;SDS011;11357;49.990;7.370;2022-07-29T07:16:58;632.75;;;575.38;;
22378;SDS011;11357;49.990;7.370;2022-07-29T07:19:25;795.95;;;721.55;;
22378;SDS011;11357;49.990;7.370;2022-07-29T07:21:52;967.47;;;789.65;;
22378;SDS011;11357;49.990;7.370;2022-07-29T07:24:18;261.30;;;241.25;;
22378;SDS011;11357;49.990;7.370;2022-07-29T07:26:44;858.65;;;770.53;;
22378;SDS011;11357;49.990;7.370;2022-07-29T07:29:10;576.22;;;532.30;;
22378;SDS011;11357;49.990;7.370;2022-07-29T07:31:36;254.75;;;237.02;;
22378;SDS011;11357;49.990;7.370;2022-07-29T07:34:03;355.90;;;328.10;;
22378;SDS011;11357;49.990;7.370;2022-07-29T07:36:29;458.77;;;424.75;;
22378;SDS011;11357;49.990;7.370;2022-07-29T07:38:55;183.32;;;169.20;;
22378;SDS011;11357;49.990;7.370;2022-07-29T07:41:20;197.23;;;183.60;;
22378;SDS011;11357;49.990;7.370;2022-07-29T07:43:46;108.28;;;100.75;;
22378;SDS011;11357;49.990;7.370;2022-07-29T07:46:12;31.13;;;29.02;;
22378;SDS011;11357;49.990;7.370;2022-07-29T07:48:38;45.97;;;42.95;;
22378;SDS011;11357;49.990;7.370;2022-07-29T07:51:03;56.78;;;53.28;;
22378;SDS011;11357;49.990;7.370;2022-07-29T07:53:29;14.93;;;13.57;;
22378;SDS011;11357;49.990;7.370;2022-07-29T07:55:55;14.77;;;13.65;;
22378;SDS011;11357;49.990;7.370;2022-07-29T07:58:21;13.15;;;9.90;;
22378;SDS011;11357;49.990;7.370;2022-07-29T08:00:47;11.35;;;10.13;;
22378;SDS011;11357;49.990;7.370;2022-07-29T08:03:12;7.65;;;5.90;;
22378;SDS011;11357;49.990;7.370;2022-07-29T08:05:39;10.35;;;9.27;;
22378;SDS011;11357;49.990;7.370;2022-07-29T08:08:05;8.45;;;4.68;;
22378;SDS011;11357;49.990;7.370;2022-07-29T08:10:31;6.43;;;5.72;;
22378;SDS011;11357;49.990;7.370;2022-07-29T08:13:16;10.50;;;9.23;;
22378;SDS011;11357;49.990;7.370;2022-07-29T08:15:42;9.05;;;5.53;;
22378;SDS011;11357;49.990;7.370;2022-07-29T08:18:09;15.73;;;7.22;;
22378;SDS011;11357;49.990;7.370;2022-07-29T08:20:35;12.50;;;6.57;;
22378;SDS011;11357;49.990;7.370;2022-07-29T08:23:03;8.88;;;5.45;;
22378;SDS011;11357;49.990;7.370;2022-07-29T08:25:31;9.57;;;6.22;;
22378;SDS011;11357;49.990;7.370;2022-07-29T08:27:58;9.85;;;4.53;;
22378;SDS011;11357;49.990;7.370;2022-07-29T08:30:24;8.18;;;5.38;;
22378;SDS011;11357;49.990;7.370;2022-07-29T08:32:49;7.10;;;3.50;;
22378;SDS011;11357;49.990;7.370;2022-07-29T08:35:18;6.70;;;3.10;;
22378;SDS011;11357;49.990;7.370;2022-07-29T08:37:44;9.20;;;3.08;;
22378;SDS011;11357;49.990;7.370;2022-07-29T08:40:10;10.95;;;4.00;;
22378;SDS011;11357;49.990;7.370;2022-07-29T08:42:36;6.70;;;3.78;;
22378;SDS011;11357;49.990;7.370;2022-07-29T08:45:02;7.38;;;4.20;;
22378;SDS011;11357;49.990;7.370;2022-07-29T08:47:29;6.90;;;3.92;;
22378;SDS011;11357;49.990;7.370;2022-07-29T08:49:55;6.57;;;3.63;;
22378;SDS011;11357;49.990;7.370;2022-07-29T08:52:20;5.90;;;3.17;;
22378;SDS011;11357;49.990;7.370;2022-07-29T08:54:50;10.13;;;2.97;;
22378;SDS011;11357;49.990;7.370;2022-07-29T08:57:17;4.85;;;2.80;;
22378;SDS011;11357;49.990;7.370;2022-07-29T08:59:44;5.55;;;3.10;;
22378;SDS011;11357;49.990;7.370;2022-07-29T09:02:20;5.38;;;2.92;;
22378;SDS011;11357;49.990;7.370;2022-07-29T09:04:48;5.60;;;2.88;;
22378;SDS011;11357;49.990;7.370;2022-07-29T09:07:14;6.80;;;2.85;;
22378;SDS011;11357;49.990;7.370;2022-07-29T09:09:41;3.33;;;2.10;;
22378;SDS011;11357;49.990;7.370;2022-07-29T09:12:08;7.40;;;2.53;;
22378;SDS011;11357;49.990;7.370;2022-07-29T09:14:38;9.80;;;2.65;;
22378;SDS011;11357;49.990;7.370;2022-07-29T09:17:04;5.40;;;2.20;;
22378;SDS011;11357;49.990;7.370;2022-07-29T09:19:31;6.18;;;2.55;;
22378;SDS011;11357;49.990;7.370;2022-07-29T09:22:03;8.70;;;2.95;;
22378;SDS011;11357;49.990;7.370;2022-07-29T09:24:45;3.88;;;2.78;;
22378;SDS011;11357;49.990;7.370;2022-07-29T09:32:29;6.00;;;2.60;;
22378;SDS011;11357;49.990;7.370;2022-07-29T09:35:13;8.13;;;2.22;;
22378;SDS011;11357;49.990;7.370;2022-07-29T09:37:41;6.97;;;2.40;;
22378;SDS011;11357;49.990;7.370;2022-07-29T09:40:11;7.25;;;2.55;;
22378;SDS011;11357;49.990;7.370;2022-07-29T11:21:04;4.35;;;2.90;;
22378;SDS011;11357;49.990;7.370;2022-07-29T11:24:16;13.70;;;3.67;;
22378;SDS011;11357;49.990;7.370;2022-07-29T11:32:17;3.28;;;2.70;;
22378;SDS011;11357;49.990;7.370;2022-07-29T11:34:45;8.20;;;2.83;;
22378;SDS011;11357;49.990;7.370;2022-07-29T11:37:14;5.45;;;2.22;;
22378;SDS011;11357;49.990;7.370;2022-07-29T11:47:32;9.75;;;2.80;;
22378;SDS011;11357;49.990;7.370;2022-07-29T11:50:00;6.00;;;2.30;;
22378;SDS011;11357;49.990;7.370;2022-07-29T11:52:36;5.07;;;2.38;;
22378;SDS011;11357;49.990;7.370;2022-07-29T11:55:08;3.05;;;2.20;;
22378;SDS011;11357;49.990;7.370;2022-07-29T11:57:37;4.65;;;2.72;;
22378;SDS011;11357;49.990;7.370;2022-07-29T12:00:10;4.10;;;2.10;;
22378;SDS011;11357;49.990;7.370;2022-07-29T12:02:43;7.40;;;2.83;;
22378;SDS011;11357;49.990;7.370;2022-07-29T12:05:09;7.05;;;2.58;;
22378;SDS011;11357;49.990;7.370;2022-07-29T12:07:39;4.03;;;2.38;;
22378;SDS011;11357;49.990;7.370;2022-07-29T12:10:05;4.43;;;2.58;;
22378;SDS011;11357;49.990;7.370;2022-07-29T12:12:33;7.00;;;2.50;;
22378;SDS011;11357;49.990;7.370;2022-07-29T12:15:13;8.07;;;2.75;;
22378;SDS011;11357;49.990;7.370;2022-07-29T12:17:41;4.93;;;2.53;;
22378;SDS011;11357;49.990;7.370;2022-07-29T12:20:07;5.57;;;2.40;;
22378;SDS011;11357;49.990;7.370;2022-07-29T12:22:34;6.05;;;2.63;;
22378;SDS011;11357;49.990;7.370;2022-07-29T12:25:04;3.38;;;2.50;;
22378;SDS011;11357;49.990;7.370;2022-07-29T12:27:34;8.13;;;2.88;;
22378;SDS011;11357;49.990;7.370;2022-07-29T12:30:01;5.55;;;2.60;;
22378;SDS011;11357;49.990;7.370;2022-07-29T12:32:32;7.95;;;2.72;;
22378;SDS011;11357;49.990;7.370;2022-07-29T12:35:03;7.05;;;2.63;;
22378;SDS011;11357;49.990;7.370;2022-07-29T12:37:38;6.80;;;2.58;;
22378;SDS011;11357;49.990;7.370;2022-07-29T12:40:06;5.88;;;2.80;;
22378;SDS011;11357;49.990;7.370;2022-07-29T12:42:32;9.23;;;2.75;;
22378;SDS011;11357;49.990;7.370;2022-07-29T12:44:59;10.75;;;2.42;;
22378;SDS011;11357;49.990;7.370;2022-07-29T12:47:25;9.82;;;2.50;;
22378;SDS011;11357;49.990;7.370;2022-07-29T12:49:51;4.22;;;2.40;;
22378;SDS011;11357;49.990;7.370;2022-07-29T12:52:42;4.43;;;2.50;;
22378;SDS011;11357;49.990;7.370;2022-07-29T12:55:09;9.85;;;2.90;;
22378;SDS011;11357;49.990;7.370;2022-07-29T12:57:49;8.13;;;2.13;;
22378;SDS011;11357;49.990;7.370;2022-07-29T13:00:21;7.25;;;3.58;;
22378;SDS011;11357;49.990;7.370;2022-07-29T13:02:58;28.75;;;3.60;;
22378;SDS011;11357;49.990;7.370;2022-07-29T13:05:44;11.40;;;2.92;;
22378;SDS011;11357;49.990;7.370;2022-07-29T13:08:14;7.05;;;2.58;;
22378;SDS011;11357;49.990;7.370;2022-07-29T13:10:40;6.80;;;2.50;;
22378;SDS011;11357;49.990;7.370;2022-07-29T13:13:10;8.18;;;2.85;;
22378;SDS011;11357;49.990;7.370;2022-07-29T13:15:38;4.38;;;2.53;;
22378;SDS011;11357;49.990;7.370;2022-07-29T13:18:25;7.25;;;3.03;;
22378;SDS011;11357;49.990;7.370;2022-07-29T13:20:55;9.23;;;2.65;;
22378;SDS011;11357;49.990;7.370;2022-07-29T13:23:21;11.45;;;3.40;;
22378;SDS011;11357;49.990;7.370;2022-07-29T13:25:47;6.10;;;3.15;;
22378;SDS011;11357;49.990;7.370;2022-07-29T13:28:13;8.52;;;2.65;;
22378;SDS011;11357;49.990;7.370;2022-07-29T13:30:39;16.00;;;2.67;;
22378;SDS011;11357;49.990;7.370;2022-07-29T13:33:06;4.15;;;2.65;;
22378;SDS011;11357;49.990;7.370;2022-07-29T13:35:31;7.07;;;2.60;;
22378;SDS011;11357;49.990;7.370;2022-07-29T13:37:57;5.28;;;2.72;;
22378;SDS011;11357;49.990;7.370;2022-07-29T13:40:23;8.13;;;2.53;;
22378;SDS011;11357;49.990;7.370;2022-07-29T13:42:49;6.80;;;3.00;;
22378;SDS011;11357;49.990;7.370;2022-07-29T13:45:15;8.98;;;2.88;;
22378;SDS011;11357;49.990;7.370;2022-07-29T13:47:41;6.60;;;2.58;;
22378;SDS011;11357;49.990;7.370;2022-07-29T13:50:07;5.47;;;3.42;;
22378;SDS011;11357;49.990;7.370;2022-07-29T13:52:35;6.80;;;2.53;;
22378;SDS011;11357;49.990;7.370;2022-07-29T13:55:02;8.57;;;2.70;;
22378;SDS011;11357;49.990;7.370;2022-07-29T13:57:28;7.75;;;2.40;;
22378;SDS011;11357;49.990;7.370;2022-07-29T13:59:54;9.20;;;2.72;;
22378;SDS011;11357;49.990;7.370;2022-07-29T14:02:20;9.90;;;3.10;;
22378;SDS011;11357;49.990;7.370;2022-07-29T14:04:46;6.93;;;2.70;;
22378;SDS011;11357;49.990;7.370;2022-07-29T14:07:12;6.07;;;2.80;;
22378;SDS011;11357;49.990;7.370;2022-07-29T14:09:38;7.35;;;2.42;;
22378;SDS011;11357;49.990;7.370;2022-07-29T14:12:04;3.97;;;2.47;;
22378;SDS011;11357;49.990;7.370;2022-07-29T14:14:30;4.15;;;2.72;;
22378;SDS011;11357;49.990;7.370;2022-07-29T14:16:57;8.52;;;3.00;;
22378;SDS011;11357;49.990;7.370;2022-07-29T14:19:26;8.38;;;2.90;;
22378;SDS011;11357;49.990;7.370;2022-07-29T14:21:52;6.60;;;2.70;;
22378;SDS011;11357;49.990;7.370;2022-07-29T14:24:18;9.13;;;3.20;;
22378;SDS011;11357;49.990;7.370;2022-07-29T14:26:44;6.60;;;3.05;;
22378;SDS011;11357;49.990;7.370;2022-07-29T14:29:10;5.05;;;2.80;;
22378;SDS011;11357;49.990;7.370;2022-07-29T14:31:36;7.65;;;3.00;;
22378;SDS011;11357;49.990;7.370;2022-07-29T14:34:02;5.85;;;2.90;;
22378;SDS011;11357;49.990;7.370;2022-07-29T14:36:28;6.63;;;3.25;;
22378;SDS011;11357;49.990;7.370;2022-07-29T14:38:54;13.40;;;3.33;;
22378;SDS011;11357;49.990;7.370;2022-07-29T14:41:19;6.60;;;3.63;;
22378;SDS011;11357;49.990;7.370;2022-07-29T14:43:46;21.05;;;18.92;;
22378;SDS011;11357;49.990;7.370;2022-07-29T14:46:12;6.32;;;3.45;;
22378;SDS011;11357;49.990;7.370;2022-07-29T14:48:38;5.78;;;3.00;;
22378;SDS011;11357;49.990;7.370;2022-07-29T14:51:04;4.78;;;2.88;;
22378;SDS011;11357;49.990;7.370;2022-07-29T14:53:30;9.88;;;2.95;;
22378;SDS011;11357;49.990;7.370;2022-07-29T14:55:56;11.75;;;2.88;;
22378;SDS011;11357;49.990;7.370;2022-07-29T14:58:21;5.63;;;2.92;;
22378;SDS011;11357;49.990;7.370;2022-07-29T15:00:47;7.85;;;3.00;;
22378;SDS011;11357;49.990;7.370;2022-07-29T15:03:13;3.83;;;2.80;;
22378;SDS011;11357;49.990;7.370;2022-07-29T15:05:39;7.97;;;2.70;;
22378;SDS011;11357;49.990;7.370;2022-07-29T15:08:04;4.68;;;2.50;;
22378;SDS011;11357;49.990;7.370;2022-07-29T15:10:30;6.85;;;3.10;;
22378;SDS011;11357;49.990;7.370;2022-07-29T15:12:56;6.35;;;3.13;;
22378;SDS011;11357;49.990;7.370;2022-07-29T15:15:22;3.38;;;2.85;;
22378;SDS011;11357;49.990;7.370;2022-07-29T15:17:48;5.00;;;2.95;;
22378;SDS011;11357;49.990;7.370;2022-07-29T15:20:13;12.15;;;2.63;;
22378;SDS011;11357;49.990;7.370;2022-07-29T15:22:39;7.93;;;4.10;;
22378;SDS011;11357;49.990;7.370;2022-07-29T15:25:07;4.30;;;3.10;;
22378;SDS011;11357;49.990;7.370;2022-07-29T15:27:34;4.72;;;2.75;;
22378;SDS011;11357;49.990;7.370;2022-07-29T15:30:00;3.97;;;2.50;;
22378;SDS011;11357;49.990;7.370;2022-07-29T15:32:26;8.68;;;2.40;;
22378;SDS011;11357;49.990;7.370;2022-07-29T15:34:51;7.28;;;2.70;;
22378;SDS011;11357;49.990;7.370;2022-07-29T15:37:17;7.80;;;2.33;;
22378;SDS011;11357;49.990;7.370;2022-07-29T15:39:43;10.60;;;3.22;;
22378;SDS011;11357;49.990;7.370;2022-07-29T15:42:08;9.10;;;2.80;;
22378;SDS011;11357;49.990;7.370;2022-07-29T15:44:34;12.80;;;3.08;;
22378;SDS011;11357;49.990;7.370;2022-07-29T15:47:00;9.07;;;2.65;;
22378;SDS011;11357;49.990;7.370;2022-07-29T15:49:33;6.03;;;2.58;;
22378;SDS011;11357;49.990;7.370;2022-07-29T15:52:06;11.45;;;3.03;;
22378;SDS011;11357;49.990;7.370;2022-07-29T15:54:34;10.82;;;3.08;;
22378;SDS011;11357;49.990;7.370;2022-07-29T15:57:02;6.28;;;3.15;;
22378;SDS011;11357;49.990;7.370;2022-07-29T15:59:28;12.45;;;3.67;;
22378;SDS011;11357;49.990;7.370;2022-07-29T16:01:55;6.53;;;3.83;;
22378;SDS011;11357;49.990;7.370;2022-07-29T16:04:21;8.50;;;5.75;;
22378;SDS011;11357;49.990;7.370;2022-07-29T16:06:47;7.78;;;5.20;;
22378;SDS011;11357;49.990;7.370;2022-07-29T16:09:14;11.23;;;6.65;;
22378;SDS011;11357;49.990;7.370;2022-07-29T16:11:41;8.90;;;8.18;;
22378;SDS011;11357;49.990;7.370;2022-07-29T16:14:07;14.18;;;12.88;;
22378;SDS011;11357;49.990;7.370;2022-07-29T16:16:35;26.20;;;24.10;;
22378;SDS011;11357;49.990;7.370;2022-07-29T16:19:01;55.58;;;52.03;;
22378;SDS011;11357;49.990;7.370;2022-07-29T16:21:27;48.42;;;45.10;;
22378;SDS011;11357;49.990;7.370;2022-07-29T16:23:55;41.63;;;39.17;;
22378;SDS011;11357;49.990;7.370;2022-07-29T16:26:22;33.55;;;31.50;;
22378;SDS011;11357;49.990;7.370;2022-07-29T16:28:48;33.00;;;30.77;;
22378;SDS011;11357;49.990;7.370;2022-07-29T16:31:14;29.98;;;27.98;;
22378;SDS011;11357;49.990;7.370;2022-07-29T16:33:39;40.97;;;38.42;;
22378;SDS011;11357;49.990;7.370;2022-07-29T16:36:05;44.22;;;40.92;;
22378;SDS011;11357;49.990;7.370;2022-07-29T16:38:31;118.03;;;110.15;;
22378;SDS011;11357;49.990;7.370;2022-07-29T16:40:57;137.35;;;128.07;;
22378;SDS011;11357;49.990;7.370;2022-07-29T16:43:22;194.65;;;181.13;;
22378;SDS011;11357;49.990;7.370;2022-07-29T16:45:48;324.77;;;299.25;;